Time;durP1;ratioP1;P1;durP2;ratioP2;P2;SDS_P1;SDS_P2;PMS_P1;PMS_P2;Temp;Humidity;BMP_temperature;BMP_pressure;BME280_temperature;BME280_humidity;BME280_pressure;Samples;Min_cycle;Max_cycle;Signal;HPM_P1;HPM_P2
2023/12/28 00:02:07;;;;;;;5.18;1.88;;;9.60;99.90;;;;;;5080771;28;20040;-68
2023/12/28 00:04:34;;;;;;;4.53;1.80;;;9.50;99.90;;;;;;5085409;28;20024;-67
2023/12/28 00:07:02;;;;;;;4.68;2.00;;;9.60;99.90;;;;;;5082723;28;20300;-67
2023/12/28 00:09:27;;;;;;;4.28;2.10;;;9.60;99.90;;;;;;5083296;28;20602;-67
2023/12/28 00:11:53;;;;;;;5.13;1.73;;;9.60;99.90;;;;;;5079771;28;20048;-67
2023/12/28 00:14:19;;;;;;;3.40;2.07;;;9.60;99.90;;;;;;5080785;28;20093;-67
2023/12/28 00:16:44;;;;;;;7.38;1.77;;;9.70;99.90;;;;;;5080190;28;20054;-67
2023/12/28 00:19:10;;;;;;;3.13;1.57;;;9.70;99.90;;;;;;5083493;28;20055;-68
2023/12/28 00:21:36;;;;;;;4.60;1.58;;;9.60;99.90;;;;;;5071651;28;20101;-68
2023/12/28 00:24:02;;;;;;;4.60;1.90;;;9.60;99.90;;;;;;5081591;28;20042;-68
2023/12/28 00:26:30;;;;;;;3.58;1.95;;;9.70;99.90;;;;;;5083891;28;20040;-67
2023/12/28 00:28:55;;;;;;;7.22;2.00;;;9.70;99.90;;;;;;5081751;28;20677;-68
2023/12/28 00:31:21;;;;;;;4.97;2.13;;;9.60;99.90;;;;;;5087656;28;20381;-68
2023/12/28 00:33:52;;;;;;;4.83;2.03;;;9.70;99.90;;;;;;5087891;28;20105;-68
2023/12/28 00:36:18;;;;;;;5.13;1.80;;;9.70;99.90;;;;;;5084168;28;20109;-68
2023/12/28 00:38:43;;;;;;;8.67;1.80;;;9.70;99.90;;;;;;5083879;28;20040;-69
2023/12/28 00:41:09;;;;;;;9.67;2.00;;;9.70;99.90;;;;;;5083649;28;20070;-68
2023/12/28 00:43:34;;;;;;;11.50;2.33;;;9.70;99.90;;;;;;5085490;28;20040;-68
2023/12/28 00:46:00;;;;;;;7.97;1.73;;;9.80;99.90;;;;;;5087012;28;20281;-68
2023/12/28 00:48:26;;;;;;;5.27;1.87;;;9.70;99.90;;;;;;5089532;28;20086;-68
2023/12/28 00:50:55;;;;;;;7.50;1.77;;;9.70;99.90;;;;;;5085669;28;20051;-68
2023/12/28 00:53:20;;;;;;;10.23;1.60;;;9.80;99.90;;;;;;5077298;28;20075;-69
2023/12/28 00:55:46;;;;;;;6.47;1.97;;;9.70;99.90;;;;;;5088212;28;20035;-68
2023/12/28 00:58:12;;;;;;;5.47;1.70;;;9.70;99.90;;;;;;5089210;28;20052;-68
2023/12/28 01:00:40;;;;;;;4.97;1.67;;;9.70;99.90;;;;;;5080703;28;20036;-68
2023/12/28 01:03:05;;;;;;;9.70;2.77;;;9.70;99.90;;;;;;5082381;28;20044;-68
2023/12/28 01:05:31;;;;;;;11.03;1.97;;;9.60;99.90;;;;;;5083254;28;20097;-68
2023/12/28 01:07:57;;;;;;;9.13;1.40;;;9.60;99.90;;;;;;5087014;28;20054;-68
2023/12/28 01:10:22;;;;;;;9.67;2.30;;;9.60;99.90;;;;;;5090405;28;20071;-68
2023/12/28 01:12:48;;;;;;;8.00;2.10;;;9.50;99.90;;;;;;5083980;28;20072;-68
2023/12/28 01:15:14;;;;;;;7.93;2.07;;;9.60;99.90;;;;;;5079045;28;20063;-69
2023/12/28 01:17:40;;;;;;;10.75;2.17;;;9.50;99.90;;;;;;5086314;28;20123;-69
2023/12/28 01:20:06;;;;;;;8.38;1.35;;;9.50;99.90;;;;;;5089402;28;20129;-66
2023/12/28 01:22:32;;;;;;;;;;;9.50;99.90;;;;;;5089648;28;20043;-69
2023/12/28 01:24:58;;;;;;;7.28;2.33;;;9.40;99.90;;;;;;5090053;28;19927;-68
2023/12/28 01:27:24;;;;;;;12.60;2.10;;;9.40;99.90;;;;;;5088378;28;20059;-68
2023/12/28 01:29:50;;;;;;;9.48;2.33;;;9.30;99.90;;;;;;5066036;28;20036;-68
2023/12/28 01:32:16;;;;;;;10.10;2.38;;;9.40;99.90;;;;;;5087026;28;20485;-69
2023/12/28 01:34:42;;;;;;;11.40;2.00;;;9.40;99.90;;;;;;5072329;28;20044;-68
2023/12/28 01:37:09;;;;;;;13.50;1.80;;;9.40;99.90;;;;;;5087197;28;20504;-68
2023/12/28 01:39:35;;;;;;;15.30;2.42;;;9.40;99.90;;;;;;5092702;28;20466;-68
2023/12/28 01:42:01;;;;;;;8.27;2.13;;;9.40;99.90;;;;;;5073192;28;20118;-67
2023/12/28 01:44:26;;;;;;;12.38;2.58;;;9.40;99.90;;;;;;5056622;28;20516;-67
2023/12/28 01:46:56;;;;;;;7.18;2.20;;;9.40;99.90;;;;;;5058359;28;20478;-66
2023/12/28 01:49:23;;;;;;;13.20;2.53;;;9.40;99.90;;;;;;5087157;28;20047;-66
2023/12/28 01:51:50;;;;;;;8.82;2.78;;;9.40;99.90;;;;;;5087955;28;20036;-66
2023/12/28 01:54:16;;;;;;;7.90;1.77;;;9.40;99.90;;;;;;5089995;28;20472;-67
2023/12/28 01:56:44;;;;;;;13.85;1.83;;;9.40;99.90;;;;;;5083285;28;20127;-69
2023/12/28 01:59:10;;;;;;;12.75;2.63;;;9.40;99.90;;;;;;5084939;28;20364;-68
2023/12/28 02:01:36;;;;;;;20.10;2.92;;;9.40;99.90;;;;;;5087205;28;20123;-68
2023/12/28 02:04:03;;;;;;;13.88;2.13;;;9.40;99.90;;;;;;5091938;28;20048;-68
2023/12/28 02:06:29;;;;;;;19.23;3.22;;;9.40;99.90;;;;;;5091576;28;20032;-66
2023/12/28 02:08:55;;;;;;;11.15;2.42;;;9.40;99.90;;;;;;5098252;28;20048;-68
2023/12/28 02:11:21;;;;;;;12.50;2.03;;;9.40;99.90;;;;;;5084082;28;20089;-68
2023/12/28 02:13:48;;;;;;;11.10;2.35;;;9.40;99.90;;;;;;5082242;28;20040;-66
2023/12/28 02:16:20;;;;;;;11.20;2.17;;;9.40;99.90;;;;;;5065910;28;20041;-67
2023/12/28 02:18:53;;;;;;;10.98;2.35;;;9.40;99.90;;;;;;5088684;28;20040;-67
2023/12/28 02:21:21;;;;;;;8.15;1.50;;;9.40;99.90;;;;;;5088576;28;20044;-67
2023/12/28 02:23:50;;;;;;;10.30;2.25;;;9.40;99.90;;;;;;5086270;28;20530;-66
2023/12/28 02:26:17;;;;;;;11.02;1.88;;;9.30;99.90;;;;;;5084149;28;20024;-69
2023/12/28 02:28:47;;;;;;;4.22;1.30;;;9.40;99.90;;;;;;5092142;28;20028;-69
2023/12/28 02:31:28;;;;;;;9.43;1.90;;;9.40;99.90;;;;;;5090472;28;20336;-68
2023/12/28 02:34:08;;;;;;;8.32;1.63;;;9.50;99.90;;;;;;5063098;28;20596;-67
2023/12/28 02:36:41;;;;;;;6.47;1.33;;;9.40;99.90;;;;;;5050864;28;20048;-68
2023/12/28 02:39:09;;;;;;;10.48;2.72;;;9.50;99.90;;;;;;5082076;28;20063;-69
2023/12/28 02:41:36;;;;;;;9.57;2.33;;;9.50;99.90;;;;;;5087850;28;20113;-68
2023/12/28 02:44:02;;;;;;;;;;;9.60;99.90;;;;;;5088712;28;20050;-68
2023/12/28 02:46:28;;;;;;;9.05;1.80;;;9.60;99.90;;;;;;5089361;28;20427;-68
2023/12/28 02:48:57;;;;;;;11.68;1.58;;;9.60;99.90;;;;;;5081345;28;20036;-67
2023/12/28 02:51:23;;;;;;;8.35;1.95;;;9.70;99.90;;;;;;5090341;28;20063;-69
2023/12/28 02:53:49;;;;;;;5.93;1.60;;;9.70;99.90;;;;;;5087689;28;20496;-70
2023/12/28 02:56:15;;;;;;;9.95;2.00;;;9.70;99.90;;;;;;5085399;28;20586;-74
2023/12/28 02:58:41;;;;;;;8.85;1.70;;;9.70;99.90;;;;;;5081571;28;20462;-68
2023/12/28 03:01:07;;;;;;;10.27;1.87;;;9.80;99.90;;;;;;5088151;28;20048;-68
2023/12/28 03:03:33;;;;;;;5.68;1.55;;;9.80;99.90;;;;;;5087492;28;20473;-68
2023/12/28 03:06:01;;;;;;;6.20;1.53;;;9.90;99.90;;;;;;5064067;28;20080;-68
2023/12/28 03:08:27;;;;;;;8.18;2.42;;;9.90;99.90;;;;;;5081219;28;20044;-69
2023/12/28 03:10:52;;;;;;;5.67;1.53;;;10.00;99.90;;;;;;5084659;28;20355;-68
2023/12/28 03:13:18;;;;;;;10.88;1.63;;;9.90;99.90;;;;;;5085601;28;20071;-68
2023/12/28 03:15:44;;;;;;;8.97;1.47;;;10.00;99.90;;;;;;5078599;28;20427;-68
2023/12/28 03:18:09;;;;;;;8.90;2.10;;;10.00;99.90;;;;;;5074386;28;20048;-68
2023/12/28 03:20:35;;;;;;;6.60;1.03;;;10.10;99.90;;;;;;5084305;28;20032;-68
2023/12/28 03:23:00;;;;;;;9.33;1.73;;;10.10;99.90;;;;;;5083425;28;20064;-69
2023/12/28 03:25:33;;;;;;;8.80;1.87;;;10.10;99.90;;;;;;5085673;28;20036;-68
2023/12/28 03:28:02;;;;;;;11.20;1.70;;;10.00;99.90;;;;;;5075004;28;20044;-69
2023/12/28 03:30:27;;;;;;;12.00;2.08;;;10.00;99.90;;;;;;5084718;28;20093;-67
2023/12/28 03:32:53;;;;;;;5.10;1.30;;;10.00;99.90;;;;;;5080136;28;20467;-68
2023/12/28 03:35:19;;;;;;;8.40;1.20;;;10.00;99.90;;;;;;5095594;28;20043;-68
2023/12/28 03:37:44;;;;;;;6.50;1.67;;;10.00;99.90;;;;;;5084130;28;20139;-68
2023/12/28 03:40:10;;;;;;;7.18;1.75;;;10.00;99.90;;;;;;5079586;28;20028;-68
2023/12/28 03:42:36;;;;;;;6.88;1.70;;;10.00;99.90;;;;;;5067317;28;20044;-68
2023/12/28 03:45:02;;;;;;;9.77;1.70;;;10.00;99.90;;;;;;5085930;28;20047;-68
2023/12/28 03:47:27;;;;;;;6.07;1.50;;;10.00;99.90;;;;;;5077174;28;20121;-68
2023/12/28 03:49:56;;;;;;;10.30;2.17;;;10.00;99.90;;;;;;5084767;28;20512;-69
2023/12/28 03:52:23;;;;;;;8.05;2.03;;;10.00;99.90;;;;;;5086005;28;20075;-68
2023/12/28 03:54:48;;;;;;;8.15;2.92;;;10.00;99.90;;;;;;5080622;28;20044;-68
2023/12/28 03:57:14;;;;;;;9.57;2.43;;;10.00;99.90;;;;;;5085202;28;20051;-68
2023/12/28 03:59:40;;;;;;;5.70;1.40;;;10.00;99.90;;;;;;5087621;28;20098;-69
2023/12/28 04:02:06;;;;;;;6.97;1.67;;;10.00;99.90;;;;;;5086387;28;20044;-68
2023/12/28 04:04:31;;;;;;;8.00;1.63;;;10.00;99.90;;;;;;5081276;28;20040;-68
2023/12/28 04:06:57;;;;;;;9.43;2.70;;;10.00;99.90;;;;;;5083001;28;20039;-68
2023/12/28 04:09:22;;;;;;;4.80;1.30;;;10.00;99.90;;;;;;5086189;28;20083;-68
2023/12/28 04:11:48;;;;;;;9.33;2.43;;;9.90;99.90;;;;;;5095199;28;20075;-68
2023/12/28 04:14:14;;;;;;;9.47;2.73;;;10.00;99.90;;;;;;5091412;28;20078;-68
2023/12/28 04:16:39;;;;;;;17.90;2.60;;;10.00;99.90;;;;;;5085849;28;20270;-68
2023/12/28 04:19:05;;;;;;;10.23;1.93;;;10.00;99.90;;;;;;5088947;28;20051;-68
2023/12/28 04:21:30;;;;;;;6.50;1.40;;;10.00;99.90;;;;;;5088823;28;20048;-68
2023/12/28 04:23:56;;;;;;;4.80;3.17;;;10.00;99.90;;;;;;5081334;28;20044;-68
2023/12/28 04:26:24;;;;;;;12.53;2.33;;;10.00;99.90;;;;;;5084029;28;20112;-68
2023/12/28 04:28:52;;;;;;;8.75;2.30;;;10.00;99.90;;;;;;5089365;28;20202;-68
2023/12/28 04:31:18;;;;;;;9.45;1.92;;;10.10;99.90;;;;;;5090431;28;20069;-69
2023/12/28 04:33:43;;;;;;;6.80;1.63;;;10.10;99.90;;;;;;5089956;28;20441;-69
2023/12/28 04:36:11;;;;;;;9.57;1.90;;;10.10;99.90;;;;;;5089443;28;20039;-68
2023/12/28 04:38:38;;;;;;;5.82;1.85;;;10.10;99.90;;;;;;5082590;28;20435;-68
2023/12/28 04:41:04;;;;;;;8.80;2.20;;;10.10;99.90;;;;;;5090241;28;20040;-69
2023/12/28 04:43:32;;;;;;;6.20;1.37;;;10.10;99.90;;;;;;5089249;28;20115;-68
2023/12/28 04:46:02;;;;;;;9.23;1.48;;;10.10;99.90;;;;;;5083969;28;20036;-69
2023/12/28 04:48:27;;;;;;;12.07;2.13;;;10.10;99.90;;;;;;5088279;28;20044;-68
2023/12/28 04:50:53;;;;;;;5.90;1.90;;;10.10;99.90;;;;;;5085861;28;20048;-68
2023/12/28 04:53:18;;;;;;;9.47;2.07;;;10.10;99.90;;;;;;5087376;28;20048;-68
2023/12/28 04:55:44;;;;;;;5.53;1.97;;;10.10;99.90;;;;;;5087261;28;20063;-68
2023/12/28 04:58:13;;;;;;;13.47;2.23;;;10.10;99.90;;;;;;5085684;28;20269;-68
2023/12/28 05:00:39;;;;;;;16.02;1.98;;;10.10;99.90;;;;;;5083938;28;20347;-68
2023/12/28 05:03:05;;;;;;;10.80;2.03;;;10.20;99.90;;;;;;5085064;28;20594;-69
2023/12/28 05:05:30;;;;;;;7.75;1.45;;;10.10;99.90;;;;;;5080944;28;20063;-68
2023/12/28 05:07:56;;;;;;;8.73;2.13;;;10.20;99.90;;;;;;5089227;28;20465;-68
2023/12/28 05:10:24;;;;;;;10.50;1.65;;;10.20;99.90;;;;;;5085971;28;20333;-68
2023/12/28 05:12:50;;;;;;;6.67;1.73;;;10.20;99.90;;;;;;5086406;28;20055;-69
2023/12/28 05:15:16;;;;;;;10.60;1.80;;;10.20;99.90;;;;;;5087503;28;20060;-68
2023/12/28 05:17:44;;;;;;;;;;;10.20;99.90;;;;;;5088210;28;20040;-68
2023/12/28 05:20:13;;;;;;;6.97;2.00;;;10.20;99.90;;;;;;5074798;28;19916;-68
2023/12/28 05:22:38;;;;;;;8.10;1.50;;;10.20;99.90;;;;;;5064905;28;20046;-68
2023/12/28 05:25:04;;;;;;;8.93;1.70;;;10.20;99.90;;;;;;5085771;28;20081;-68
2023/12/28 05:27:30;;;;;;;8.10;2.00;;;10.20;99.90;;;;;;5087847;28;20461;-68
2023/12/28 05:29:56;;;;;;;12.60;1.37;;;10.30;99.90;;;;;;5085496;28;20064;-68
2023/12/28 05:32:24;;;;;;;13.87;2.47;;;10.30;99.90;;;;;;5089603;28;20035;-66
2023/12/28 05:34:50;;;;;;;10.02;2.35;;;10.30;99.90;;;;;;5089722;28;20047;-66
2023/12/28 05:37:15;;;;;;;14.88;1.60;;;10.30;99.90;;;;;;5080928;28;20039;-67
2023/12/28 05:39:41;;;;;;;11.33;1.30;;;10.30;99.90;;;;;;5087945;28;20126;-66
2023/12/28 05:42:06;;;;;;;12.90;1.93;;;10.20;99.90;;;;;;5088209;28;20090;-65
2023/12/28 05:44:34;;;;;;;9.50;2.20;;;10.20;99.90;;;;;;5088207;28;20055;-66
2023/12/28 05:47:00;;;;;;;9.25;1.70;;;10.20;99.90;;;;;;5080339;28;20423;-66
2023/12/28 05:49:25;;;;;;;12.47;1.80;;;10.20;99.90;;;;;;5087865;28;20124;-66
2023/12/28 05:51:51;;;;;;;18.23;2.20;;;10.20;99.90;;;;;;5090381;28;20121;-65
2023/12/28 05:54:17;;;;;;;11.70;1.47;;;10.20;99.90;;;;;;5085035;28;20044;-66
2023/12/28 05:56:42;;;;;;;15.00;2.53;;;10.20;99.90;;;;;;5085462;28;20028;-66
2023/12/28 05:59:08;;;;;;;5.37;1.63;;;10.20;99.90;;;;;;5087387;28;20468;-66
2023/12/28 06:01:42;;;;;;;14.63;2.50;;;10.20;99.90;;;;;;5093176;28;20047;-66
2023/12/28 06:04:07;;;;;;;11.35;1.17;;;10.20;99.90;;;;;;5089113;28;20101;-66
2023/12/28 06:06:34;;;;;;;14.57;2.87;;;10.20;99.90;;;;;;5088961;28;20032;-65
2023/12/28 06:08:59;;;;;;;13.43;1.88;;;10.20;99.90;;;;;;5080486;28;20134;-65
2023/12/28 06:11:25;;;;;;;13.10;2.10;;;10.20;99.90;;;;;;5087082;28;20131;-66
2023/12/28 06:13:50;;;;;;;5.67;1.40;;;10.30;99.90;;;;;;5090847;28;20461;-66
2023/12/28 06:16:16;;;;;;;14.30;2.03;;;10.30;99.90;;;;;;5087018;28;20415;-66
2023/12/28 06:18:42;;;;;;;7.70;2.20;;;10.30;99.90;;;;;;5081757;28;20043;-67
2023/12/28 06:21:08;;;;;;;8.57;1.83;;;10.30;99.90;;;;;;5082529;28;20043;-66
2023/12/28 06:23:37;;;;;;;;;;;10.30;99.90;;;;;;5088322;28;20035;-67
2023/12/28 06:26:08;;;;;;;13.60;2.75;;;10.30;99.90;;;;;;5072637;28;19916;-67
2023/12/28 06:28:34;;;;;;;8.73;1.85;;;10.30;99.90;;;;;;5082734;28;20513;-66
2023/12/28 06:31:00;;;;;;;13.53;1.70;;;10.30;99.90;;;;;;5084268;28;20092;-67
2023/12/28 06:33:29;;;;;;;11.23;1.45;;;10.30;99.90;;;;;;5081257;28;20070;-67
2023/12/28 06:35:57;;;;;;;11.43;2.00;;;10.30;99.90;;;;;;5093238;28;20447;-67
2023/12/28 06:38:26;;;;;;;11.95;1.90;;;10.30;99.90;;;;;;5082765;28;20127;-67
2023/12/28 06:40:52;;;;;;;13.10;1.70;;;10.30;99.90;;;;;;5080144;28;20484;-66
2023/12/28 06:43:17;;;;;;;16.30;1.67;;;10.30;99.90;;;;;;5088673;28;20650;-66
2023/12/28 06:45:43;;;;;;;16.73;2.83;;;10.30;99.90;;;;;;5083687;28;20035;-66
2023/12/28 06:48:08;;;;;;;12.97;1.87;;;10.40;99.90;;;;;;5086573;28;20043;-67
2023/12/28 06:50:34;;;;;;;10.40;2.63;;;10.30;99.90;;;;;;5084094;28;20047;-67
2023/12/28 06:52:59;;;;;;;12.43;2.03;;;10.40;99.90;;;;;;5079370;28;20040;-67
2023/12/28 06:55:25;;;;;;;12.60;1.60;;;10.30;99.90;;;;;;5085507;28;20080;-67
2023/12/28 06:57:51;;;;;;;15.60;2.37;;;10.40;99.90;;;;;;5080802;28;20485;-67
2023/12/28 07:00:17;;;;;;;11.20;2.43;;;10.40;99.90;;;;;;5088186;28;20164;-66
2023/12/28 07:02:42;;;;;;;7.53;1.95;;;10.30;99.90;;;;;;5084825;28;20036;-66
2023/12/28 07:05:08;;;;;;;8.83;1.60;;;10.40;99.90;;;;;;5082545;28;20496;-66
2023/12/28 07:07:36;;;;;;;11.53;2.67;;;10.40;99.90;;;;;;5086409;28;20243;-66
2023/12/28 07:10:03;;;;;;;9.05;2.47;;;10.30;99.90;;;;;;5088039;28;20036;-67
2023/12/28 07:12:28;;;;;;;;;;;10.40;99.90;;;;;;5085329;28;20044;-66
2023/12/28 07:14:54;;;;;;;15.75;2.58;;;10.30;99.90;;;;;;5083946;28;19924;-66
2023/12/28 07:17:23;;;;;;;15.03;1.87;;;10.30;99.90;;;;;;5086283;28;20467;-66
2023/12/28 07:19:51;;;;;;;9.40;2.10;;;10.30;99.90;;;;;;5086501;28;20032;-67
2023/12/28 07:22:16;;;;;;;10.68;2.45;;;10.40;99.90;;;;;;5063687;28;20044;-67
2023/12/28 07:24:42;;;;;;;14.77;2.20;;;10.30;99.90;;;;;;5083556;28;20036;-67
2023/12/28 07:27:07;;;;;;;15.27;3.37;;;10.30;99.90;;;;;;5085964;28;20044;-67
2023/12/28 07:29:33;;;;;;;10.30;2.07;;;10.30;99.90;;;;;;5085438;28;20262;-67
2023/12/28 07:32:01;;;;;;;15.90;2.00;;;10.30;99.90;;;;;;5081710;28;20515;-67
2023/12/28 07:34:29;;;;;;;20.15;2.75;;;10.30;99.90;;;;;;5087961;28;20036;-67
2023/12/28 07:36:55;;;;;;;14.80;2.88;;;10.30;99.90;;;;;;5080935;28;20062;-67
2023/12/28 07:39:21;;;;;;;15.60;2.10;;;10.30;99.90;;;;;;5084438;28;20032;-66
2023/12/28 07:41:46;;;;;;;16.33;2.27;;;10.40;99.90;;;;;;5090768;28;20496;-67
2023/12/28 07:44:12;;;;;;;16.10;3.00;;;10.40;99.90;;;;;;5091061;28;20175;-67
2023/12/28 07:46:40;;;;;;;21.67;3.50;;;10.40;99.90;;;;;;5087487;28;20032;-66
2023/12/28 07:49:06;;;;;;;15.07;3.13;;;10.40;99.90;;;;;;5089284;28;20044;-67
2023/12/28 07:51:31;;;;;;;19.63;2.77;;;10.40;99.90;;;;;;5083997;28;20032;-67
2023/12/28 07:53:57;;;;;;;15.10;2.83;;;10.40;99.90;;;;;;5096555;28;20404;-67
2023/12/28 07:56:23;;;;;;;21.05;2.72;;;10.40;99.90;;;;;;5092586;28;20040;-67
2023/12/28 07:58:48;;;;;;;17.40;2.70;;;10.40;99.90;;;;;;5089416;28;20084;-67
2023/12/28 08:01:14;;;;;;;19.27;2.17;;;10.50;99.90;;;;;;5082809;28;20063;-66
2023/12/28 08:03:40;;;;;;;12.07;3.10;;;10.50;99.90;;;;;;5083878;28;20083;-67
2023/12/28 08:06:05;;;;;;;16.63;2.90;;;10.50;99.90;;;;;;5092775;28;20407;-67
2023/12/28 08:08:31;;;;;;;13.97;2.27;;;10.50;99.90;;;;;;5089864;28;20118;-67
2023/12/28 08:10:57;;;;;;;20.25;3.80;;;10.50;99.90;;;;;;5085303;28;20291;-67
2023/12/28 08:13:23;;;;;;;16.20;2.90;;;10.50;99.90;;;;;;5088132;28;20400;-67
2023/12/28 08:15:48;;;;;;;14.63;2.75;;;10.60;99.90;;;;;;5087203;28;20047;-66
2023/12/28 08:18:14;;;;;;;16.30;2.47;;;10.50;99.90;;;;;;5085739;28;20433;-67
2023/12/28 08:20:40;;;;;;;20.43;3.53;;;10.50;99.90;;;;;;5088989;28;20424;-67
2023/12/28 08:23:05;;;;;;;23.27;4.07;;;10.60;99.90;;;;;;5082088;28;20036;-66
2023/12/28 08:25:31;;;;;;;14.97;2.33;;;10.60;99.90;;;;;;5092100;28;20032;-67
2023/12/28 08:27:56;;;;;;;22.80;3.37;;;10.60;99.90;;;;;;5084629;28;20504;-67
2023/12/28 08:30:22;;;;;;;22.30;3.37;;;10.60;99.90;;;;;;5086700;28;20039;-66
2023/12/28 08:32:48;;;;;;;21.43;2.70;;;10.60;99.90;;;;;;5092848;28;20093;-67
2023/12/28 08:35:13;;;;;;;16.40;3.23;;;10.50;99.90;;;;;;5088069;28;20044;-67
2023/12/28 08:37:39;;;;;;;14.63;3.33;;;10.60;99.90;;;;;;5084856;28;20040;-67
2023/12/28 08:40:05;;;;;;;23.10;2.67;;;10.60;99.90;;;;;;5087784;28;20476;-67
2023/12/28 08:42:31;;;;;;;25.42;3.13;;;10.60;99.90;;;;;;5093172;28;20442;-67
2023/12/28 08:44:56;;;;;;;19.63;3.50;;;10.60;99.90;;;;;;5087711;28;20036;-66
2023/12/28 08:47:22;;;;;;;20.57;4.10;;;10.60;99.90;;;;;;5089725;28;20035;-67
2023/12/28 08:49:48;;;;;;;18.38;3.22;;;10.60;99.90;;;;;;5086417;28;20109;-67
2023/12/28 08:52:13;;;;;;;24.37;3.00;;;10.60;99.90;;;;;;5089470;28;20450;-67
2023/12/28 08:54:40;;;;;;;22.03;3.23;;;10.60;99.90;;;;;;5088191;28;20031;-67
2023/12/28 08:57:06;;;;;;;21.63;3.28;;;10.60;99.90;;;;;;5086987;28;20500;-67
2023/12/28 08:59:36;;;;;;;19.98;3.90;;;10.70;99.90;;;;;;5090034;28;20048;-66
2023/12/28 09:02:01;;;;;;;20.88;4.15;;;10.70;99.90;;;;;;5076215;28;20060;-66
2023/12/28 09:04:27;;;;;;;20.75;3.22;;;10.70;99.90;;;;;;5083380;28;20547;-67
2023/12/28 09:06:53;;;;;;;23.00;2.93;;;10.80;99.90;;;;;;5087050;28;20402;-66
2023/12/28 09:09:18;;;;;;;25.40;3.30;;;10.80;99.90;;;;;;5087939;28;20119;-67
2023/12/28 09:11:44;;;;;;;9.80;2.13;;;10.80;99.90;;;;;;5071504;28;20259;-67
2023/12/28 09:14:09;;;;;;;16.80;3.07;;;10.80;99.90;;;;;;5088152;28;20328;-66
2023/12/28 09:16:35;;;;;;;20.27;2.80;;;10.80;99.90;;;;;;5090660;28;20044;-67
2023/12/28 09:19:01;;;;;;;19.87;2.83;;;10.80;99.90;;;;;;5093162;28;20044;-67
2023/12/28 09:21:27;;;;;;;14.70;2.45;;;10.70;99.90;;;;;;5088083;28;20139;-68
2023/12/28 09:23:52;;;;;;;15.73;2.97;;;10.70;99.90;;;;;;5084168;28;20406;-67
2023/12/28 09:26:18;;;;;;;14.87;3.13;;;10.70;99.90;;;;;;5087992;28;20486;-67
2023/12/28 09:28:44;;;;;;;27.00;3.30;;;10.70;99.90;;;;;;5084290;28;20322;-67
2023/12/28 09:31:09;;;;;;;19.67;2.90;;;10.70;99.90;;;;;;5082455;28;20044;-67
2023/12/28 09:33:35;;;;;;;16.17;2.57;;;10.70;99.90;;;;;;5089236;28;20094;-67
2023/12/28 09:36:04;;;;;;;14.90;2.30;;;10.70;99.90;;;;;;5086588;28;20052;-72
2023/12/28 09:38:29;;;;;;;15.75;3.35;;;10.70;99.90;;;;;;5068092;28;20300;-66
2023/12/28 09:41:03;;;;;;;18.37;2.87;;;10.60;99.90;;;;;;5082523;28;20049;-66
2023/12/28 09:43:37;;;;;;;14.65;2.45;;;10.60;99.90;;;;;;5089559;28;20051;-67
2023/12/28 09:46:07;;;;;;;17.27;2.45;;;10.60;99.90;;;;;;5080351;28;20046;-67
2023/12/28 09:48:33;;;;;;;12.43;3.20;;;10.70;99.90;;;;;;5009969;28;20045;-67
2023/12/28 09:50:58;;;;;;;17.98;2.63;;;10.60;99.90;;;;;;5037860;28;20094;-67
2023/12/28 09:53:25;;;;;;;19.03;2.93;;;10.70;99.90;;;;;;5038320;28;20462;-67
2023/12/28 09:55:52;;;;;;;14.13;3.17;;;10.70;99.90;;;;;;5026919;28;20045;-67
2023/12/28 09:58:19;;;;;;;17.15;3.33;;;10.70;99.90;;;;;;5035340;28;20298;-67
2023/12/28 10:00:47;;;;;;;14.60;3.47;;;10.70;99.90;;;;;;5030335;28;20049;-67
2023/12/28 10:03:14;;;;;;;13.95;2.50;;;10.70;99.90;;;;;;5036198;28;20044;-67
2023/12/28 10:05:44;;;;;;;10.65;2.92;;;10.80;99.90;;;;;;5034456;28;20390;-67
2023/12/28 10:08:14;;;;;;;19.42;3.10;;;10.80;99.90;;;;;;5033652;28;20383;-66
2023/12/28 10:10:40;;;;;;;16.33;2.55;;;10.70;99.90;;;;;;5028677;28;20365;-66
2023/12/28 10:13:11;;;;;;;16.20;2.17;;;10.80;99.90;;;;;;5038746;28;20402;-67
2023/12/28 10:15:39;;;;;;;22.77;3.75;;;10.80;99.90;;;;;;5032745;28;20130;-66
2023/12/28 10:18:05;;;;;;;16.23;3.33;;;10.70;99.90;;;;;;5036065;28;20045;-67
2023/12/28 10:20:31;;;;;;;12.90;2.05;;;10.70;99.90;;;;;;5034518;28;20413;-67
2023/12/28 10:23:00;;;;;;;21.67;2.67;;;10.70;99.90;;;;;;5031403;28;20136;-67
2023/12/28 10:25:27;;;;;;;19.15;2.63;;;10.70;99.90;;;;;;5032284;28;20111;-67
2023/12/28 10:27:54;;;;;;;17.85;2.28;;;10.80;99.90;;;;;;5031156;28;20113;-67
2023/12/28 10:30:20;;;;;;;15.75;2.40;;;10.80;99.90;;;;;;5036719;28;20037;-67
2023/12/28 10:32:46;;;;;;;15.88;2.40;;;10.80;99.90;;;;;;5031320;28;20418;-67
2023/12/28 10:35:12;;;;;;;16.38;2.85;;;10.70;99.90;;;;;;5029914;28;20041;-66
2023/12/28 10:37:42;;;;;;;19.48;3.08;;;10.80;99.90;;;;;;5033099;28;20049;-67
2023/12/28 10:40:15;;;;;;;17.83;2.65;;;10.80;99.90;;;;;;5037318;28;20513;-66
2023/12/28 10:42:54;;;;;;;17.20;2.78;;;10.80;99.90;;;;;;5032192;28;20453;-67
2023/12/28 10:45:26;;;;;;;12.52;2.15;;;10.80;99.90;;;;;;5039528;28;20302;-67
2023/12/28 10:48:11;;;;;;;14.75;2.88;;;10.80;99.90;;;;;;5035489;28;20164;-67
2023/12/28 10:50:42;;;;;;;15.93;2.50;;;10.80;99.90;;;;;;5031837;28;20302;-66
2023/12/28 10:53:43;;;;;;;17.02;2.70;;;10.80;99.90;;;;;;5029365;28;20045;-67
2023/12/28 10:56:24;;;;;;;16.40;2.13;;;10.80;99.90;;;;;;5035437;28;20128;-67
2023/12/28 10:59:01;;;;;;;17.88;2.58;;;10.80;99.90;;;;;;5037801;28;20095;-66
2023/12/28 11:01:32;;;;;;;19.35;3.20;;;10.80;99.90;;;;;;5032075;28;20512;-67
2023/12/28 11:04:23;;;;;;;22.23;3.67;;;10.90;99.90;;;;;;5026506;28;20034;-67
2023/12/28 11:06:50;;;;;;;17.40;3.13;;;10.80;99.90;;;;;;5030716;28;20044;-67
2023/12/28 11:09:15;;;;;;;22.05;3.17;;;10.90;99.90;;;;;;5036562;28;20041;-66
2023/12/28 11:11:43;;;;;;;16.53;2.80;;;10.90;99.90;;;;;;5034235;28;20508;-67
2023/12/28 11:14:09;;;;;;;17.58;2.75;;;10.90;99.90;;;;;;5035340;28;20571;-67
2023/12/28 11:16:37;;;;;;;17.63;3.17;;;10.90;99.90;;;;;;5034514;28;20041;-66
2023/12/28 11:19:04;;;;;;;15.25;3.17;;;10.90;99.90;;;;;;5036265;28;20290;-66
2023/12/28 11:21:29;;;;;;;;;;;10.90;99.90;;;;;;5037452;28;20049;-67
2023/12/28 11:23:57;;;;;;;16.33;2.40;;;10.90;99.90;;;;;;5035026;28;19983;-66
2023/12/28 11:26:23;;;;;;;11.02;1.98;;;10.80;99.90;;;;;;5039674;28;20040;-74
2023/12/28 11:28:49;;;;;;;12.00;2.70;;;10.80;99.90;;;;;;5017171;28;20358;-67
2023/12/28 11:31:16;;;;;;;14.52;2.95;;;10.80;99.90;;;;;;5030842;28;20381;-68
2023/12/28 11:33:51;;;;;;;10.25;2.75;;;10.80;99.90;;;;;;5036733;28;20049;-68
2023/12/28 11:36:32;;;;;;;15.20;3.35;;;10.80;99.90;;;;;;5035295;28;20132;-68
2023/12/28 11:39:01;;;;;;;16.85;3.13;;;10.70;99.90;;;;;;5036904;28;20042;-68
2023/12/28 11:41:27;;;;;;;22.15;2.63;;;10.80;99.90;;;;;;5017166;28;20037;-67
2023/12/28 11:43:55;;;;;;;17.80;2.93;;;10.70;99.90;;;;;;5036080;28;20043;-68
2023/12/28 11:46:21;;;;;;;20.60;3.33;;;10.80;99.90;;;;;;5031198;28;20068;-68
2023/12/28 11:48:47;;;;;;;16.75;3.00;;;10.80;99.90;;;;;;5037090;28;20041;-68
2023/12/28 11:51:13;;;;;;;20.63;2.87;;;10.80;99.90;;;;;;5038939;28;20523;-68
2023/12/28 11:53:39;;;;;;;14.37;3.10;;;10.80;99.90;;;;;;5036324;28;20068;-68
2023/12/28 11:56:09;;;;;;;13.88;3.10;;;10.80;99.90;;;;;;5018335;28;20049;-68
2023/12/28 11:58:35;;;;;;;14.40;2.90;;;10.80;99.90;;;;;;5036614;28;20426;-68
2023/12/28 12:01:01;;;;;;;;;;;10.80;99.90;;;;;;5032249;28;20080;-67
2023/12/28 12:03:27;;;;;;;16.15;3.03;;;10.80;99.90;;;;;;5032636;28;20436;-71
2023/12/28 12:05:54;;;;;;;16.17;2.30;;;10.70;99.90;;;;;;5030965;28;20034;-72
2023/12/28 12:08:19;;;;;;;22.52;4.40;;;10.70;99.90;;;;;;5039201;28;20088;-70
2023/12/28 12:10:45;;;;;;;20.03;2.60;;;10.80;99.90;;;;;;5039730;28;20049;-70
2023/12/28 12:13:11;;;;;;;12.27;2.57;;;10.80;99.90;;;;;;5041203;28;20110;-68
2023/12/28 12:15:37;;;;;;;18.25;3.97;;;10.90;99.90;;;;;;5032031;28;20458;-74
2023/12/28 12:18:03;;;;;;;13.73;2.40;;;10.90;99.90;;;;;;5034040;28;20073;-68
2023/12/28 12:20:29;;;;;;;13.73;3.78;;;10.90;99.90;;;;;;5039479;28;20038;-72
2023/12/28 12:22:59;;;;;;;;;;;10.90;99.90;;;;;;5034976;28;20045;-67
2023/12/28 12:25:24;;;;;;;20.77;2.70;;;10.90;99.90;;;;;;5039875;28;19932;-68
2023/12/28 12:27:50;;;;;;;22.83;3.53;;;10.90;99.90;;;;;;5034861;28;20039;-76
2023/12/28 12:30:16;;;;;;;18.87;2.93;;;10.90;99.90;;;;;;5034678;28;20107;-76
2023/12/28 12:32:42;;;;;;;13.60;3.23;;;10.90;99.90;;;;;;5035771;28;20044;-69
2023/12/28 12:35:10;;;;;;;18.50;3.45;;;11.00;99.90;;;;;;5035374;28;20497;-68
2023/12/28 12:37:36;;;;;;;18.38;3.30;;;10.90;99.90;;;;;;5038254;28;20055;-68
2023/12/28 12:40:05;;;;;;;12.25;3.42;;;10.90;99.90;;;;;;5030634;28;20119;-69
2023/12/28 12:42:32;;;;;;;21.98;4.05;;;10.90;99.90;;;;;;5036948;28;20233;-68
2023/12/28 12:44:57;;;;;;;;;;;10.90;99.90;;;;;;5037212;28;20049;-75